sensor_id;sensor_type;location;lat;lon;timestamp;P1;durP1;ratioP1;P2;durP2;ratioP2
26474;SDS011;14161;52.270;10.334;2022-07-19T00:00:15;10.68;;;2.17;;
26474;SDS011;14161;52.270;10.334;2022-07-19T00:02:41;4.50;;;2.20;;
26474;SDS011;14161;52.270;10.334;2022-07-19T00:05:07;4.55;;;2.00;;
26474;SDS011;14161;52.270;10.334;2022-07-19T00:07:34;6.18;;;2.00;;
26474;SDS011;14161;52.270;10.334;2022-07-19T00:10:00;4.80;;;2.00;;
26474;SDS011;14161;52.270;10.334;2022-07-19T00:12:26;6.47;;;1.98;;
26474;SDS011;14161;52.270;10.334;2022-07-19T00:14:52;9.45;;;1.88;;
26474;SDS011;14161;52.270;10.334;2022-07-19T00:17:17;5.80;;;1.90;;
26474;SDS011;14161;52.270;10.334;2022-07-19T00:19:43;5.80;;;1.95;;
26474;SDS011;14161;52.270;10.334;2022-07-19T00:22:08;5.00;;;2.13;;
26474;SDS011;14161;52.270;10.334;2022-07-19T00:24:34;4.18;;;1.88;;
26474;SDS011;14161;52.270;10.334;2022-07-19T00:26:59;4.00;;;1.70;;
26474;SDS011;14161;52.270;10.334;2022-07-19T00:29:25;3.50;;;1.75;;
26474;SDS011;14161;52.270;10.334;2022-07-19T00:31:50;4.57;;;1.90;;
26474;SDS011;14161;52.270;10.334;2022-07-19T00:34:16;6.45;;;2.38;;
26474;SDS011;14161;52.270;10.334;2022-07-19T00:36:41;4.90;;;1.67;;
26474;SDS011;14161;52.270;10.334;2022-07-19T00:39:07;6.13;;;1.60;;
26474;SDS011;14161;52.270;10.334;2022-07-19T00:41:37;8.55;;;1.90;;
26474;SDS011;14161;52.270;10.334;2022-07-19T00:44:04;3.97;;;1.67;;
26474;SDS011;14161;52.270;10.334;2022-07-19T00:46:30;3.58;;;1.95;;
26474;SDS011;14161;52.270;10.334;2022-07-19T00:48:55;4.70;;;1.90;;
26474;SDS011;14161;52.270;10.334;2022-07-19T00:51:21;5.65;;;1.80;;
26474;SDS011;14161;52.270;10.334;2022-07-19T00:53:46;4.60;;;2.00;;
26474;SDS011;14161;52.270;10.334;2022-07-19T00:56:13;7.45;;;1.75;;
26474;SDS011;14161;52.270;10.334;2022-07-19T00:58:39;4.97;;;1.98;;
26474;SDS011;14161;52.270;10.334;2022-07-19T01:01:06;6.10;;;2.15;;
26474;SDS011;14161;52.270;10.334;2022-07-19T01:03:34;2.83;;;1.67;;
26474;SDS011;14161;52.270;10.334;2022-07-19T01:06:00;4.57;;;2.10;;
26474;SDS011;14161;52.270;10.334;2022-07-19T01:08:26;4.70;;;1.95;;
26474;SDS011;14161;52.270;10.334;2022-07-19T01:10:51;3.95;;;1.63;;
26474;SDS011;14161;52.270;10.334;2022-07-19T01:13:17;4.25;;;1.80;;
26474;SDS011;14161;52.270;10.334;2022-07-19T01:15:43;5.15;;;1.80;;
26474;SDS011;14161;52.270;10.334;2022-07-19T01:18:09;5.00;;;1.80;;
26474;SDS011;14161;52.270;10.334;2022-07-19T01:20:34;4.35;;;2.17;;
26474;SDS011;14161;52.270;10.334;2022-07-19T01:23:00;10.30;;;2.17;;
26474;SDS011;14161;52.270;10.334;2022-07-19T01:25:27;4.25;;;1.98;;
26474;SDS011;14161;52.270;10.334;2022-07-19T01:27:54;4.03;;;2.05;;
26474;SDS011;14161;52.270;10.334;2022-07-19T01:30:20;8.73;;;2.30;;
26474;SDS011;14161;52.270;10.334;2022-07-19T01:32:47;6.68;;;2.22;;
26474;SDS011;14161;52.270;10.334;2022-07-19T01:35:13;5.47;;;2.20;;
26474;SDS011;14161;52.270;10.334;2022-07-19T01:37:39;3.97;;;1.85;;
26474;SDS011;14161;52.270;10.334;2022-07-19T01:40:05;7.25;;;1.98;;
26474;SDS011;14161;52.270;10.334;2022-07-19T01:42:32;4.45;;;2.03;;
26474;SDS011;14161;52.270;10.334;2022-07-19T01:44:58;4.15;;;1.95;;
26474;SDS011;14161;52.270;10.334;2022-07-19T01:47:23;6.38;;;2.42;;
26474;SDS011;14161;52.270;10.334;2022-07-19T01:49:49;8.60;;;2.60;;
26474;SDS011;14161;52.270;10.334;2022-07-19T01:52:14;4.47;;;2.33;;
26474;SDS011;14161;52.270;10.334;2022-07-19T01:54:40;5.60;;;2.75;;
26474;SDS011;14161;52.270;10.334;2022-07-19T01:57:05;5.28;;;1.88;;
26474;SDS011;14161;52.270;10.334;2022-07-19T01:59:31;4.32;;;2.17;;
26474;SDS011;14161;52.270;10.334;2022-07-19T02:01:56;5.22;;;2.22;;
26474;SDS011;14161;52.270;10.334;2022-07-19T02:04:21;7.07;;;2.20;;
26474;SDS011;14161;52.270;10.334;2022-07-19T02:06:47;3.30;;;1.73;;
26474;SDS011;14161;52.270;10.334;2022-07-19T02:09:12;4.30;;;2.00;;
26474;SDS011;14161;52.270;10.334;2022-07-19T02:11:38;5.93;;;2.35;;
26474;SDS011;14161;52.270;10.334;2022-07-19T02:14:04;3.30;;;1.88;;
26474;SDS011;14161;52.270;10.334;2022-07-19T02:16:31;4.60;;;1.92;;
26474;SDS011;14161;52.270;10.334;2022-07-19T02:18:57;8.15;;;1.95;;
26474;SDS011;14161;52.270;10.334;2022-07-19T02:21:22;2.60;;;1.98;;
26474;SDS011;14161;52.270;10.334;2022-07-19T02:23:48;7.88;;;2.05;;
26474;SDS011;14161;52.270;10.334;2022-07-19T02:26:13;4.95;;;2.25;;
26474;SDS011;14161;52.270;10.334;2022-07-19T02:28:38;4.07;;;2.10;;
26474;SDS011;14161;52.270;10.334;2022-07-19T02:31:04;3.28;;;2.03;;
26474;SDS011;14161;52.270;10.334;2022-07-19T02:33:30;5.22;;;2.40;;
26474;SDS011;14161;52.270;10.334;2022-07-19T02:35:55;3.70;;;2.10;;
26474;SDS011;14161;52.270;10.334;2022-07-19T02:38:21;5.43;;;2.30;;
26474;SDS011;14161;52.270;10.334;2022-07-19T02:40:46;5.60;;;2.00;;
26474;SDS011;14161;52.270;10.334;2022-07-19T02:43:12;4.60;;;2.03;;
26474;SDS011;14161;52.270;10.334;2022-07-19T02:45:37;3.67;;;2.20;;
26474;SDS011;14161;52.270;10.334;2022-07-19T02:48:03;4.43;;;2.30;;
26474;SDS011;14161;52.270;10.334;2022-07-19T02:50:30;4.07;;;1.75;;
26474;SDS011;14161;52.270;10.334;2022-07-19T02:52:58;6.40;;;2.05;;
26474;SDS011;14161;52.270;10.334;2022-07-19T02:55:23;8.48;;;1.90;;
26474;SDS011;14161;52.270;10.334;2022-07-19T02:57:49;6.88;;;2.10;;
26474;SDS011;14161;52.270;10.334;2022-07-19T03:00:14;3.45;;;1.70;;
26474;SDS011;14161;52.270;10.334;2022-07-19T03:02:40;3.22;;;1.92;;
26474;SDS011;14161;52.270;10.334;2022-07-19T03:05:06;4.63;;;1.88;;
26474;SDS011;14161;52.270;10.334;2022-07-19T03:07:32;2.25;;;1.75;;
26474;SDS011;14161;52.270;10.334;2022-07-19T03:09:57;3.45;;;1.85;;
26474;SDS011;14161;52.270;10.334;2022-07-19T03:12:23;5.20;;;2.17;;
26474;SDS011;14161;52.270;10.334;2022-07-19T03:14:48;3.90;;;2.05;;
26474;SDS011;14161;52.270;10.334;2022-07-19T03:17:14;5.35;;;2.17;;
26474;SDS011;14161;52.270;10.334;2022-07-19T03:19:39;3.63;;;1.90;;
26474;SDS011;14161;52.270;10.334;2022-07-19T03:22:05;6.40;;;2.22;;
26474;SDS011;14161;52.270;10.334;2022-07-19T03:24:30;5.45;;;1.73;;
26474;SDS011;14161;52.270;10.334;2022-07-19T03:26:56;2.83;;;1.75;;
26474;SDS011;14161;52.270;10.334;2022-07-19T03:29:21;2.65;;;1.80;;
26474;SDS011;14161;52.270;10.334;2022-07-19T03:31:47;4.95;;;1.80;;
26474;SDS011;14161;52.270;10.334;2022-07-19T03:34:12;3.70;;;2.30;;
26474;SDS011;14161;52.270;10.334;2022-07-19T03:36:38;3.67;;;2.00;;
26474;SDS011;14161;52.270;10.334;2022-07-19T03:39:03;3.63;;;1.83;;
26474;SDS011;14161;52.270;10.334;2022-07-19T03:41:29;1.98;;;1.50;;
26474;SDS011;14161;52.270;10.334;2022-07-19T03:43:55;2.78;;;1.73;;
26474;SDS011;14161;52.270;10.334;2022-07-19T03:46:20;2.05;;;1.60;;
26474;SDS011;14161;52.270;10.334;2022-07-19T03:48:46;4.32;;;1.98;;
26474;SDS011;14161;52.270;10.334;2022-07-19T03:51:14;3.83;;;1.83;;
26474;SDS011;14161;52.270;10.334;2022-07-19T03:53:40;5.18;;;1.85;;
26474;SDS011;14161;52.270;10.334;2022-07-19T03:56:05;3.45;;;1.90;;
26474;SDS011;14161;52.270;10.334;2022-07-19T03:58:31;6.72;;;2.10;;
26474;SDS011;14161;52.270;10.334;2022-07-19T04:00:57;2.97;;;1.80;;
26474;SDS011;14161;52.270;10.334;2022-07-19T04:03:22;3.58;;;1.98;;
26474;SDS011;14161;52.270;10.334;2022-07-19T04:05:48;3.28;;;2.13;;
26474;SDS011;14161;52.270;10.334;2022-07-19T04:08:13;4.78;;;2.40;;
26474;SDS011;14161;52.270;10.334;2022-07-19T04:10:39;7.22;;;2.13;;
26474;SDS011;14161;52.270;10.334;2022-07-19T04:13:05;4.63;;;2.08;;
26474;SDS011;14161;52.270;10.334;2022-07-19T04:15:31;3.63;;;2.35;;
26474;SDS011;14161;52.270;10.334;2022-07-19T04:17:57;3.28;;;2.10;;
26474;SDS011;14161;52.270;10.334;2022-07-19T04:20:22;5.22;;;2.50;;
26474;SDS011;14161;52.270;10.334;2022-07-19T04:22:48;3.25;;;2.10;;
26474;SDS011;14161;52.270;10.334;2022-07-19T04:25:13;5.78;;;2.38;;
26474;SDS011;14161;52.270;10.334;2022-07-19T04:27:39;5.15;;;2.45;;
26474;SDS011;14161;52.270;10.334;2022-07-19T04:30:04;6.85;;;2.65;;
26474;SDS011;14161;52.270;10.334;2022-07-19T04:32:31;7.07;;;2.40;;
26474;SDS011;14161;52.270;10.334;2022-07-19T04:34:57;5.85;;;2.22;;
26474;SDS011;14161;52.270;10.334;2022-07-19T04:37:22;3.78;;;1.98;;
26474;SDS011;14161;52.270;10.334;2022-07-19T04:39:48;6.10;;;2.40;;
26474;SDS011;14161;52.270;10.334;2022-07-19T04:42:13;4.35;;;2.17;;
26474;SDS011;14161;52.270;10.334;2022-07-19T04:44:39;5.63;;;2.50;;
26474;SDS011;14161;52.270;10.334;2022-07-19T04:47:04;3.72;;;2.25;;
26474;SDS011;14161;52.270;10.334;2022-07-19T04:49:30;5.20;;;2.05;;
26474;SDS011;14161;52.270;10.334;2022-07-19T04:51:56;2.55;;;1.83;;
26474;SDS011;14161;52.270;10.334;2022-07-19T04:54:21;3.42;;;2.00;;
26474;SDS011;14161;52.270;10.334;2022-07-19T04:56:47;3.97;;;2.10;;
26474;SDS011;14161;52.270;10.334;2022-07-19T04:59:12;5.43;;;2.30;;
26474;SDS011;14161;52.270;10.334;2022-07-19T05:01:38;3.65;;;2.10;;
26474;SDS011;14161;52.270;10.334;2022-07-19T05:04:03;2.97;;;1.65;;
26474;SDS011;14161;52.270;10.334;2022-07-19T05:06:29;4.05;;;2.20;;
26474;SDS011;14161;52.270;10.334;2022-07-19T05:08:54;3.88;;;2.10;;
26474;SDS011;14161;52.270;10.334;2022-07-19T05:11:22;4.55;;;1.98;;
26474;SDS011;14161;52.270;10.334;2022-07-19T05:13:47;5.47;;;1.90;;
26474;SDS011;14161;52.270;10.334;2022-07-19T05:16:13;2.95;;;2.13;;
26474;SDS011;14161;52.270;10.334;2022-07-19T05:18:38;3.83;;;2.05;;
26474;SDS011;14161;52.270;10.334;2022-07-19T05:21:04;5.45;;;2.40;;
26474;SDS011;14161;52.270;10.334;2022-07-19T05:23:29;4.05;;;1.90;;
26474;SDS011;14161;52.270;10.334;2022-07-19T05:25:55;2.95;;;2.08;;
26474;SDS011;14161;52.270;10.334;2022-07-19T05:28:20;2.95;;;1.80;;
26474;SDS011;14161;52.270;10.334;2022-07-19T05:30:46;3.33;;;1.80;;
26474;SDS011;14161;52.270;10.334;2022-07-19T05:33:11;2.95;;;1.73;;
26474;SDS011;14161;52.270;10.334;2022-07-19T05:35:37;4.32;;;1.88;;
26474;SDS011;14161;52.270;10.334;2022-07-19T05:38:03;3.47;;;1.75;;
26474;SDS011;14161;52.270;10.334;2022-07-19T05:40:29;2.67;;;1.58;;
26474;SDS011;14161;52.270;10.334;2022-07-19T05:42:54;3.15;;;1.92;;
26474;SDS011;14161;52.270;10.334;2022-07-19T05:45:20;4.43;;;2.00;;
26474;SDS011;14161;52.270;10.334;2022-07-19T05:47:45;8.02;;;2.00;;
26474;SDS011;14161;52.270;10.334;2022-07-19T05:50:11;7.22;;;1.70;;
26474;SDS011;14161;52.270;10.334;2022-07-19T05:52:36;3.50;;;1.92;;
26474;SDS011;14161;52.270;10.334;2022-07-19T05:55:02;2.95;;;1.73;;
26474;SDS011;14161;52.270;10.334;2022-07-19T05:57:28;2.95;;;1.90;;
26474;SDS011;14161;52.270;10.334;2022-07-19T05:59:53;5.97;;;1.85;;
26474;SDS011;14161;52.270;10.334;2022-07-19T06:02:19;8.02;;;2.20;;
26474;SDS011;14161;52.270;10.334;2022-07-19T06:04:45;6.65;;;2.22;;
26474;SDS011;14161;52.270;10.334;2022-07-19T06:07:10;5.30;;;1.80;;
26474;SDS011;14161;52.270;10.334;2022-07-19T06:09:36;6.43;;;2.03;;
26474;SDS011;14161;52.270;10.334;2022-07-19T06:12:02;8.20;;;1.50;;
26474;SDS011;14161;52.270;10.334;2022-07-19T06:14:27;4.50;;;1.77;;
26474;SDS011;14161;52.270;10.334;2022-07-19T06:16:53;4.57;;;1.80;;
26474;SDS011;14161;52.270;10.334;2022-07-19T06:19:19;7.50;;;2.00;;
26474;SDS011;14161;52.270;10.334;2022-07-19T06:21:45;3.20;;;2.22;;
26474;SDS011;14161;52.270;10.334;2022-07-19T06:24:10;6.75;;;2.00;;
26474;SDS011;14161;52.270;10.334;2022-07-19T06:26:36;3.42;;;1.77;;
26474;SDS011;14161;52.270;10.334;2022-07-19T06:29:01;4.45;;;1.90;;
26474;SDS011;14161;52.270;10.334;2022-07-19T06:31:27;2.58;;;1.75;;
26474;SDS011;14161;52.270;10.334;2022-07-19T06:33:52;6.40;;;2.05;;
26474;SDS011;14161;52.270;10.334;2022-07-19T06:36:18;3.28;;;1.70;;
26474;SDS011;14161;52.270;10.334;2022-07-19T06:38:45;5.95;;;1.70;;
26474;SDS011;14161;52.270;10.334;2022-07-19T06:41:11;4.25;;;1.50;;
26474;SDS011;14161;52.270;10.334;2022-07-19T06:43:40;5.18;;;1.77;;
26474;SDS011;14161;52.270;10.334;2022-07-19T06:46:06;4.32;;;1.88;;
26474;SDS011;14161;52.270;10.334;2022-07-19T06:48:31;6.80;;;1.42;;
26474;SDS011;14161;52.270;10.334;2022-07-19T06:50:57;3.13;;;1.40;;
26474;SDS011;14161;52.270;10.334;2022-07-19T06:53:23;4.28;;;1.85;;
26474;SDS011;14161;52.270;10.334;2022-07-19T06:55:48;3.03;;;1.48;;
26474;SDS011;14161;52.270;10.334;2022-07-19T06:58:14;2.67;;;1.40;;
26474;SDS011;14161;52.270;10.334;2022-07-19T07:00:39;2.28;;;1.65;;
26474;SDS011;14161;52.270;10.334;2022-07-19T07:03:05;2.65;;;1.63;;
26474;SDS011;14161;52.270;10.334;2022-07-19T07:05:31;3.17;;;1.80;;
26474;SDS011;14161;52.270;10.334;2022-07-19T07:07:57;5.53;;;1.92;;
26474;SDS011;14161;52.270;10.334;2022-07-19T07:10:22;3.95;;;1.70;;
26474;SDS011;14161;52.270;10.334;2022-07-19T07:12:48;2.45;;;1.63;;
26474;SDS011;14161;52.270;10.334;2022-07-19T07:15:14;4.43;;;1.88;;
26474;SDS011;14161;52.270;10.334;2022-07-19T07:17:40;3.13;;;1.63;;
26474;SDS011;14161;52.270;10.334;2022-07-19T07:20:06;5.15;;;2.10;;
26474;SDS011;14161;52.270;10.334;2022-07-19T07:22:33;2.63;;;1.73;;
26474;SDS011;14161;52.270;10.334;2022-07-19T07:24:59;4.95;;;1.80;;
26474;SDS011;14161;52.270;10.334;2022-07-19T07:27:24;2.35;;;1.30;;
26474;SDS011;14161;52.270;10.334;2022-07-19T07:29:50;4.07;;;1.60;;
26474;SDS011;14161;52.270;10.334;2022-07-19T07:32:15;4.63;;;1.85;;
26474;SDS011;14161;52.270;10.334;2022-07-19T07:34:41;4.10;;;1.58;;
26474;SDS011;14161;52.270;10.334;2022-07-19T07:37:07;5.15;;;1.75;;
26474;SDS011;14161;52.270;10.334;2022-07-19T07:39:32;2.75;;;1.80;;
26474;SDS011;14161;52.270;10.334;2022-07-19T07:41:58;6.40;;;1.85;;
26474;SDS011;14161;52.270;10.334;2022-07-19T07:44:23;2.30;;;1.42;;
26474;SDS011;14161;52.270;10.334;2022-07-19T07:46:49;2.95;;;1.45;;
26474;SDS011;14161;52.270;10.334;2022-07-19T07:49:14;3.72;;;1.83;;
26474;SDS011;14161;52.270;10.334;2022-07-19T07:51:40;2.33;;;1.33;;
26474;SDS011;14161;52.270;10.334;2022-07-19T07:54:05;3.95;;;1.48;;
26474;SDS011;14161;52.270;10.334;2022-07-19T07:56:31;2.05;;;1.45;;
26474;SDS011;14161;52.270;10.334;2022-07-19T07:58:56;5.13;;;2.20;;
26474;SDS011;14161;52.270;10.334;2022-07-19T08:01:22;1.90;;;1.48;;
26474;SDS011;14161;52.270;10.334;2022-07-19T08:03:47;5.40;;;1.42;;
26474;SDS011;14161;52.270;10.334;2022-07-19T08:06:13;4.85;;;1.80;;
26474;SDS011;14161;52.270;10.334;2022-07-19T08:08:40;4.20;;;1.52;;
26474;SDS011;14161;52.270;10.334;2022-07-19T08:11:06;4.53;;;1.77;;
26474;SDS011;14161;52.270;10.334;2022-07-19T08:13:32;2.35;;;1.77;;
26474;SDS011;14161;52.270;10.334;2022-07-19T08:15:57;4.40;;;1.60;;
26474;SDS011;14161;52.270;10.334;2022-07-19T08:18:23;8.60;;;1.40;;
26474;SDS011;14161;52.270;10.334;2022-07-19T08:20:48;2.20;;;1.40;;
26474;SDS011;14161;52.270;10.334;2022-07-19T08:23:14;4.80;;;1.77;;
26474;SDS011;14161;52.270;10.334;2022-07-19T08:25:39;5.18;;;1.67;;
26474;SDS011;14161;52.270;10.334;2022-07-19T08:28:07;5.03;;;1.63;;
26474;SDS011;14161;52.270;10.334;2022-07-19T08:30:33;7.60;;;1.90;;
26474;SDS011;14161;52.270;10.334;2022-07-19T08:32:58;2.72;;;1.63;;
26474;SDS011;14161;52.270;10.334;2022-07-19T08:35:26;3.53;;;1.50;;
26474;SDS011;14161;52.270;10.334;2022-07-19T08:37:51;4.63;;;1.70;;
26474;SDS011;14161;52.270;10.334;2022-07-19T08:40:17;4.35;;;1.45;;
26474;SDS011;14161;52.270;10.334;2022-07-19T08:42:42;2.78;;;1.52;;
26474;SDS011;14161;52.270;10.334;2022-07-19T08:45:09;2.25;;;1.60;;
26474;SDS011;14161;52.270;10.334;2022-07-19T08:47:37;3.75;;;1.80;;
26474;SDS011;14161;52.270;10.334;2022-07-19T08:50:04;2.35;;;1.45;;
26474;SDS011;14161;52.270;10.334;2022-07-19T08:52:32;2.85;;;1.75;;
26474;SDS011;14161;52.270;10.334;2022-07-19T08:54:58;2.78;;;1.38;;
26474;SDS011;14161;52.270;10.334;2022-07-19T08:57:24;2.08;;;1.75;;
26474;SDS011;14161;52.270;10.334;2022-07-19T09:00:08;2.80;;;1.67;;
26474;SDS011;14161;52.270;10.334;2022-07-19T09:02:34;3.08;;;1.80;;
26474;SDS011;14161;52.270;10.334;2022-07-19T09:05:01;4.07;;;1.83;;
26474;SDS011;14161;52.270;10.334;2022-07-19T09:07:28;2.92;;;1.60;;
26474;SDS011;14161;52.270;10.334;2022-07-19T09:10:13;3.03;;;1.75;;
26474;SDS011;14161;52.270;10.334;2022-07-19T09:18:12;2.45;;;1.60;;
26474;SDS011;14161;52.270;10.334;2022-07-19T09:20:40;3.38;;;1.70;;
26474;SDS011;14161;52.270;10.334;2022-07-19T09:23:06;3.03;;;1.58;;
26474;SDS011;14161;52.270;10.334;2022-07-19T09:25:42;27.67;;;2.50;;
26474;SDS011;14161;52.270;10.334;2022-07-19T09:28:08;5.57;;;1.63;;
26474;SDS011;14161;52.270;10.334;2022-07-19T09:30:35;2.33;;;1.30;;
26474;SDS011;14161;52.270;10.334;2022-07-19T09:33:27;4.03;;;1.70;;
26474;SDS011;14161;52.270;10.334;2022-07-19T09:35:56;1.30;;;1.20;;
26474;SDS011;14161;52.270;10.334;2022-07-19T09:38:27;2.53;;;1.65;;
26474;SDS011;14161;52.270;10.334;2022-07-19T09:41:13;2.83;;;1.65;;
26474;SDS011;14161;52.270;10.334;2022-07-19T09:44:00;2.00;;;1.45;;
26474;SDS011;14161;52.270;10.334;2022-07-19T09:46:28;2.08;;;1.58;;
26474;SDS011;14161;52.270;10.334;2022-07-19T09:49:02;3.05;;;1.48;;
26474;SDS011;14161;52.270;10.334;2022-07-19T09:51:30;5.03;;;1.50;;
26474;SDS011;14161;52.270;10.334;2022-07-19T09:53:58;2.50;;;1.67;;
26474;SDS011;14161;52.270;10.334;2022-07-19T09:56:24;7.53;;;1.58;;
26474;SDS011;14161;52.270;10.334;2022-07-19T09:58:51;4.18;;;1.58;;
26474;SDS011;14161;52.270;10.334;2022-07-19T10:01:20;4.20;;;1.70;;
26474;SDS011;14161;52.270;10.334;2022-07-19T10:03:46;3.05;;;1.90;;
26474;SDS011;14161;52.270;10.334;2022-07-19T10:06:12;4.10;;;1.80;;
26474;SDS011;14161;52.270;10.334;2022-07-19T10:08:37;2.10;;;1.25;;
26474;SDS011;14161;52.270;10.334;2022-07-19T10:11:03;3.50;;;1.50;;
26474;SDS011;14161;52.270;10.334;2022-07-19T10:13:29;1.63;;;1.48;;
26474;SDS011;14161;52.270;10.334;2022-07-19T10:15:55;3.20;;;1.63;;
26474;SDS011;14161;52.270;10.334;2022-07-19T10:18:23;3.15;;;1.55;;
26474;SDS011;14161;52.270;10.334;2022-07-19T10:20:49;2.78;;;1.80;;
26474;SDS011;14161;52.270;10.334;2022-07-19T10:23:15;3.40;;;1.40;;
26474;SDS011;14161;52.270;10.334;2022-07-19T10:25:42;1.55;;;1.13;;
26474;SDS011;14161;52.270;10.334;2022-07-19T10:31:42;1.95;;;1.25;;
26474;SDS011;14161;52.270;10.334;2022-07-19T10:34:04;1.20;;;1.10;;
26474;SDS011;14161;52.270;10.334;2022-07-19T10:36:43;1.33;;;1.15;;
26474;SDS011;14161;52.270;10.334;2022-07-19T10:39:51;2.95;;;1.20;;
26474;SDS011;14161;52.270;10.334;2022-07-19T10:42:15;3.33;;;1.80;;
26474;SDS011;14161;52.270;10.334;2022-07-19T10:47:23;2.20;;;1.30;;
26474;SDS011;14161;52.270;10.334;2022-07-19T10:50:12;1.58;;;1.40;;
26474;SDS011;14161;52.270;10.334;2022-07-19T10:52:44;3.00;;;1.50;;
26474;SDS011;14161;52.270;10.334;2022-07-19T10:58:15;2.25;;;1.60;;
26474;SDS011;14161;52.270;10.334;2022-07-19T11:00:44;2.63;;;1.65;;
26474;SDS011;14161;52.270;10.334;2022-07-19T11:13:28;1.38;;;1.10;;
26474;SDS011;14161;52.270;10.334;2022-07-19T11:15:54;2.40;;;1.30;;
26474;SDS011;14161;52.270;10.334;2022-07-19T11:18:20;2.83;;;1.65;;
26474;SDS011;14161;52.270;10.334;2022-07-19T11:20:46;2.00;;;1.20;;
26474;SDS011;14161;52.270;10.334;2022-07-19T11:23:16;2.47;;;1.10;;
26474;SDS011;14161;52.270;10.334;2022-07-19T11:25:42;2.03;;;1.25;;
26474;SDS011;14161;52.270;10.334;2022-07-19T11:28:19;2.90;;;1.08;;
26474;SDS011;14161;52.270;10.334;2022-07-19T11:30:46;2.63;;;1.85;;
26474;SDS011;14161;52.270;10.334;2022-07-19T11:33:11;2.88;;;1.88;;
26474;SDS011;14161;52.270;10.334;2022-07-19T11:35:52;2.25;;;1.60;;
26474;SDS011;14161;52.270;10.334;2022-07-19T11:38:21;3.70;;;1.80;;
26474;SDS011;14161;52.270;10.334;2022-07-19T11:40:47;2.70;;;1.80;;
26474;SDS011;14161;52.270;10.334;2022-07-19T11:43:12;2.50;;;1.90;;
26474;SDS011;14161;52.270;10.334;2022-07-19T11:45:44;4.13;;;1.73;;
26474;SDS011;14161;52.270;10.334;2022-07-19T11:48:22;4.63;;;2.13;;
26474;SDS011;14161;52.270;10.334;2022-07-19T11:51:05;3.63;;;1.65;;
26474;SDS011;14161;52.270;10.334;2022-07-19T11:53:35;3.90;;;2.22;;
26474;SDS011;14161;52.270;10.334;2022-07-19T11:56:02;2.95;;;1.90;;
26474;SDS011;14161;52.270;10.334;2022-07-19T11:58:29;5.53;;;1.77;;
26474;SDS011;14161;52.270;10.334;2022-07-19T12:01:01;3.25;;;2.10;;
26474;SDS011;14161;52.270;10.334;2022-07-19T12:03:29;3.70;;;1.98;;
26474;SDS011;14161;52.270;10.334;2022-07-19T12:05:56;4.13;;;2.33;;
26474;SDS011;14161;52.270;10.334;2022-07-19T12:08:33;4.75;;;2.13;;
26474;SDS011;14161;52.270;10.334;2022-07-19T12:11:24;4.90;;;2.00;;
26474;SDS011;14161;52.270;10.334;2022-07-19T12:13:52;4.10;;;1.90;;
26474;SDS011;14161;52.270;10.334;2022-07-19T12:16:19;2.95;;;2.10;;
26474;SDS011;14161;52.270;10.334;2022-07-19T12:21:42;4.80;;;1.98;;
26474;SDS011;14161;52.270;10.334;2022-07-19T12:24:12;6.07;;;2.10;;
26474;SDS011;14161;52.270;10.334;2022-07-19T12:29:34;2.88;;;2.00;;
26474;SDS011;14161;52.270;10.334;2022-07-19T12:32:08;3.42;;;2.15;;
26474;SDS011;14161;52.270;10.334;2022-07-19T12:37:27;9.45;;;2.50;;
26474;SDS011;14161;52.270;10.334;2022-07-19T12:39:58;4.60;;;2.47;;
26474;SDS011;14161;52.270;10.334;2022-07-19T12:42:25;6.60;;;2.00;;
26474;SDS011;14161;52.270;10.334;2022-07-19T12:44:51;4.22;;;2.08;;
26474;SDS011;14161;52.270;10.334;2022-07-19T12:47:17;4.28;;;1.92;;
26474;SDS011;14161;52.270;10.334;2022-07-19T12:49:43;2.80;;;1.88;;
26474;SDS011;14161;52.270;10.334;2022-07-19T12:52:10;4.68;;;1.88;;
26474;SDS011;14161;52.270;10.334;2022-07-19T12:54:36;3.92;;;1.90;;
26474;SDS011;14161;52.270;10.334;2022-07-19T12:57:02;3.25;;;2.22;;
26474;SDS011;14161;52.270;10.334;2022-07-19T12:59:28;3.55;;;1.95;;
26474;SDS011;14161;52.270;10.334;2022-07-19T13:02:06;3.58;;;2.00;;
26474;SDS011;14161;52.270;10.334;2022-07-19T13:04:33;5.53;;;2.38;;
26474;SDS011;14161;52.270;10.334;2022-07-19T13:06:59;4.15;;;2.30;;
26474;SDS011;14161;52.270;10.334;2022-07-19T13:09:25;3.85;;;1.92;;
26474;SDS011;14161;52.270;10.334;2022-07-19T13:11:50;2.60;;;2.00;;
26474;SDS011;14161;52.270;10.334;2022-07-19T13:14:16;4.30;;;2.33;;
26474;SDS011;14161;52.270;10.334;2022-07-19T13:16:41;5.25;;;2.60;;
26474;SDS011;14161;52.270;10.334;2022-07-19T13:19:07;3.42;;;2.33;;
26474;SDS011;14161;52.270;10.334;2022-07-19T13:21:33;5.93;;;2.28;;
26474;SDS011;14161;52.270;10.334;2022-07-19T13:23:59;4.30;;;2.05;;
26474;SDS011;14161;52.270;10.334;2022-07-19T13:26:24;6.50;;;2.15;;
26474;SDS011;14161;52.270;10.334;2022-07-19T13:28:50;2.97;;;1.90;;
26474;SDS011;14161;52.270;10.334;2022-07-19T13:31:15;5.13;;;2.45;;
26474;SDS011;14161;52.270;10.334;2022-07-19T13:33:41;4.70;;;2.53;;
26474;SDS011;14161;52.270;10.334;2022-07-19T13:36:09;4.18;;;2.20;;
26474;SDS011;14161;52.270;10.334;2022-07-19T13:41:41;4.82;;;1.95;;
26474;SDS011;14161;52.270;10.334;2022-07-19T13:44:06;2.42;;;1.75;;
26474;SDS011;14161;52.270;10.334;2022-07-19T13:46:32;6.07;;;1.92;;
26474;SDS011;14161;52.270;10.334;2022-07-19T13:51:58;4.45;;;2.20;;
26474;SDS011;14161;52.270;10.334;2022-07-19T13:54:23;4.40;;;2.33;;
26474;SDS011;14161;52.270;10.334;2022-07-19T13:56:49;8.18;;;2.28;;
26474;SDS011;14161;52.270;10.334;2022-07-19T13:59:14;6.28;;;2.40;;
26474;SDS011;14161;52.270;10.334;2022-07-19T14:01:40;5.72;;;2.28;;
26474;SDS011;14161;52.270;10.334;2022-07-19T14:04:06;3.53;;;2.10;;
26474;SDS011;14161;52.270;10.334;2022-07-19T14:06:31;3.92;;;2.33;;
26474;SDS011;14161;52.270;10.334;2022-07-19T14:08:57;4.25;;;2.28;;
26474;SDS011;14161;52.270;10.334;2022-07-19T14:11:23;3.15;;;2.08;;
26474;SDS011;14161;52.270;10.334;2022-07-19T14:13:48;3.63;;;2.35;;
26474;SDS011;14161;52.270;10.334;2022-07-19T14:16:14;6.35;;;2.50;;
26474;SDS011;14161;52.270;10.334;2022-07-19T14:18:40;3.63;;;2.40;;
26474;SDS011;14161;52.270;10.334;2022-07-19T14:23:59;5.90;;;2.50;;
26474;SDS011;14161;52.270;10.334;2022-07-19T14:26:24;4.25;;;1.98;;
26474;SDS011;14161;52.270;10.334;2022-07-19T14:28:50;2.63;;;1.90;;
26474;SDS011;14161;52.270;10.334;2022-07-19T14:31:18;4.57;;;2.05;;
26474;SDS011;14161;52.270;10.334;2022-07-19T14:33:47;5.30;;;2.42;;
26474;SDS011;14161;52.270;10.334;2022-07-19T14:36:13;6.95;;;2.28;;
26474;SDS011;14161;52.270;10.334;2022-07-19T14:38:41;3.15;;;1.85;;
26474;SDS011;14161;52.270;10.334;2022-07-19T14:41:06;5.20;;;2.20;;
26474;SDS011;14161;52.270;10.334;2022-07-19T14:43:32;3.90;;;2.35;;
26474;SDS011;14161;52.270;10.334;2022-07-19T14:45:58;2.80;;;1.95;;
26474;SDS011;14161;52.270;10.334;2022-07-19T14:48:23;4.32;;;2.30;;
26474;SDS011;14161;52.270;10.334;2022-07-19T14:50:50;3.22;;;2.30;;
26474;SDS011;14161;52.270;10.334;2022-07-19T14:53:16;5.10;;;2.20;;
26474;SDS011;14161;52.270;10.334;2022-07-19T14:55:41;3.90;;;2.15;;
26474;SDS011;14161;52.270;10.334;2022-07-19T14:58:09;6.57;;;1.95;;
26474;SDS011;14161;52.270;10.334;2022-07-19T15:00:38;4.50;;;2.15;;
26474;SDS011;14161;52.270;10.334;2022-07-19T15:03:03;2.80;;;1.90;;
26474;SDS011;14161;52.270;10.334;2022-07-19T15:05:29;4.97;;;2.28;;
26474;SDS011;14161;52.270;10.334;2022-07-19T15:07:55;2.85;;;1.85;;
26474;SDS011;14161;52.270;10.334;2022-07-19T15:13:15;2.60;;;1.80;;
26474;SDS011;14161;52.270;10.334;2022-07-19T15:15:49;2.92;;;2.05;;